Redwood City, CA (94063)

1:09 PM PST on December 19, 2014 (GMT -0800)
Centennial | Change Station
CLOSE
Current Station
Personal Weather Station
Location: Redwood City, CA
Elevation: 10 ft
Nearby Weather Stations

Elev 10 ft 37.50 °N, 122.24 °W | Updated 9 minutes ago

Rain
Rain
56.9 °F
Feels Like 56.9 °F
N
0.0
Wind Variable Wind from NW
Gusts 7.0 mph

Today
High -- | Low -- °F
--% Chance of Precip.
Yesterday
High -- | Low -- °F
Precip. -- in
7:18 AM 4:53 PM
Waning Crescent, 6% visible
Pressure 30.14 in
Visibility 10.0 miles
Clouds Scattered Clouds 1400 ft
Scattered Clouds 2400 ft
Mostly Cloudy 5000 ft
Dew Point 54 °F
Humidity 91%
Rainfall 0.00 in
Snow Depth Not available.
UV 1 out of 12
Pollen 2.00 out of 12
Air Quality Not available.
Flu Activity Not available.
METAR KSQL 192047Z 13008KT 10SM -RA SCT014 SCT024 BKN050 14/12 A3014

More Conditions Fewer Conditions

Pressure 30.14 in
Visibility 10.0 miles
Clouds Scattered Clouds 1400 ft
Scattered Clouds 2400 ft
Mostly Cloudy 5000 ft
Dew Point 54 °F
Humidity 91%
Rainfall 0.00 in
Snow Depth Not available.
UV 1 out of 12
Pollen 2.00 out of 12
Air Quality Not available.
Flu Activity Not available.
METAR KSQL 192047Z 13008KT 10SM -RA SCT014 SCT024 BKN050 14/12 A3014

More Conditions Fewer Conditions

10-Day Weather Forecast

Almanac

Astronomy

Dec. 19, 2014 Rise Set
Actual Time
Civil Twilight
Nautical Twilight
Astronomical Twilight
Moon
Length of Visible Light
Length of Day
Tomorrow will be .
, % of the Moon is Illuminated

Today's Extremes

State Highs State Lows

Community

WunderPhotos

Upload Photos

1,779,051 photos uploaded!

WunderBlogs® & News

Nearby

Air Quality

  Air Quality AQ Index Pollutant
Not available.

Snow Depth

Station Depth Elevation

Earthquake Activity

City Distance Mag. Time & Date
Minimum magnitude displayed is 2.5.

Coastal Water Temperatures

Place Temperature

Nearby Weather Stations